createdAt,value
2023-04-30T00:00:40.884Z,34.33
2023-04-30T00:03:44.843Z,35.42
2023-04-30T00:06:47.959Z,26.38
2023-04-30T00:09:52.257Z,25.15
2023-04-30T00:12:55.614Z,35.00
2023-04-30T00:15:59.848Z,30.02
2023-04-30T00:19:03.659Z,37.80
2023-04-30T00:22:07.744Z,31.98
2023-04-30T00:25:11.878Z,29.13
2023-04-30T00:28:15.203Z,37.20
2023-04-30T00:31:19.109Z,29.50
2023-04-30T00:34:42.195Z,36.75
2023-04-30T00:37:48.824Z,29.33
2023-04-30T00:44:32.088Z,26.70
2023-04-30T00:47:36.209Z,24.60
2023-04-30T00:50:41.321Z,31.00
2023-04-30T00:53:45.381Z,28.50
2023-04-30T00:56:52.005Z,42.35
2023-04-30T01:03:01.873Z,37.55
2023-04-30T01:06:05.831Z,26.02
2023-04-30T01:09:09.925Z,29.67
2023-04-30T01:12:29.270Z,27.75
2023-04-30T01:15:48.440Z,31.25
2023-04-30T01:19:07.296Z,34.83
2023-04-30T01:22:26.404Z,32.05
2023-04-30T01:26:09.068Z,29.65
2023-04-30T01:29:15.581Z,24.67
2023-04-30T01:32:19.123Z,30.38
2023-04-30T01:35:35.118Z,29.10
2023-04-30T01:38:57.881Z,33.10
2023-04-30T01:42:07.471Z,34.05
2023-04-30T01:45:19.880Z,33.78
2023-04-30T01:56:00.852Z,26.27
2023-04-30T02:02:23.168Z,29.15
2023-04-30T02:05:26.986Z,33.22
2023-04-30T02:08:32.495Z,28.02
2023-04-30T02:11:36.282Z,35.22
2023-04-30T02:14:39.680Z,31.58
2023-04-30T02:17:43.710Z,36.70
2023-04-30T02:20:48.206Z,36.58
2023-04-30T02:23:53.637Z,32.15
2023-04-30T02:26:57.024Z,29.92
2023-04-30T02:30:01.184Z,34.25
2023-04-30T02:37:04.689Z,35.72
2023-04-30T02:40:11.744Z,38.42
2023-04-30T02:46:32.739Z,32.05
2023-04-30T02:49:36.516Z,33.38
2023-04-30T02:52:40.677Z,37.55
2023-04-30T02:55:44.640Z,23.25
2023-04-30T02:58:48.718Z,34.35
2023-04-30T03:01:54.809Z,37.25
2023-04-30T03:04:58.868Z,31.00
2023-04-30T03:08:05.049Z,27.95
2023-04-30T03:11:08.825Z,29.00
2023-04-30T03:14:12.660Z,26.13
2023-04-30T03:17:17.198Z,28.55
2023-04-30T03:20:20.549Z,32.00
2023-04-30T03:23:25.236Z,28.30
2023-04-30T03:26:29.135Z,27.45
2023-04-30T03:29:32.792Z,31.77
2023-04-30T03:32:36.191Z,33.63
2023-04-30T03:35:39.664Z,35.30
2023-04-30T03:38:43.958Z,29.75
2023-04-30T03:41:48.199Z,29.38
2023-04-30T03:44:59.286Z,33.90
2023-04-30T03:48:06.360Z,42.22
2023-04-30T03:51:10.586Z,37.78
2023-04-30T03:54:13.893Z,36.40
2023-04-30T03:57:21.951Z,46.63
2023-04-30T04:03:30.598Z,40.38
2023-04-30T04:06:34.830Z,32.47
2023-04-30T04:09:38.951Z,43.33
2023-04-30T04:12:43.282Z,33.80
2023-04-30T04:15:47.593Z,39.45
2023-04-30T04:18:50.647Z,39.95
2023-04-30T04:21:55.122Z,33.58
2023-04-30T04:24:59.046Z,33.35
2023-04-30T04:28:03.249Z,32.90
2023-04-30T04:31:08.515Z,31.85
2023-04-30T04:34:12.592Z,27.83
2023-04-30T04:37:18.041Z,28.30
2023-04-30T04:40:21.492Z,28.27
2023-04-30T04:43:24.744Z,36.17
2023-04-30T04:46:30.525Z,25.15
2023-04-30T04:49:34.491Z,24.48
2023-04-30T04:52:37.807Z,30.45
2023-04-30T05:03:16.757Z,14.35
2023-04-30T05:06:20.715Z,18.35
2023-04-30T05:12:41.975Z,17.58
2023-04-30T05:15:45.590Z,24.98
2023-04-30T05:18:49.591Z,9.45
2023-04-30T05:21:56.644Z,9.15
2023-04-30T05:25:00.170Z,9.63
2023-04-30T05:28:04.537Z,14.10
2023-04-30T05:31:08.247Z,12.65
2023-04-30T05:34:11.793Z,10.25
2023-04-30T05:40:42.398Z,15.80
2023-04-30T05:43:46.382Z,17.02
2023-04-30T05:46:50.105Z,15.10
2023-04-30T05:49:54.327Z,17.88
2023-04-30T05:52:57.352Z,16.73
2023-04-30T05:56:00.527Z,20.38
2023-04-30T05:59:04.168Z,23.25
2023-04-30T06:02:08.134Z,19.02
2023-04-30T06:05:14.632Z,17.13
2023-04-30T06:08:19.707Z,19.65
2023-04-30T06:11:23.352Z,16.88
2023-04-30T06:14:27.210Z,14.18
2023-04-30T06:17:31.600Z,14.50
2023-04-30T06:20:34.965Z,20.55
2023-04-30T06:23:38.820Z,19.23
2023-04-30T06:26:42.159Z,16.85
2023-04-30T06:29:46.480Z,22.00
2023-04-30T06:32:49.402Z,19.23
2023-04-30T06:35:55.758Z,17.33
2023-04-30T06:38:59.659Z,15.50
2023-04-30T06:42:03.119Z,14.73
2023-04-30T06:45:07.644Z,20.95
2023-04-30T06:48:12.007Z,18.83
2023-04-30T06:51:15.339Z,14.95
2023-04-30T06:54:19.253Z,21.75
2023-04-30T06:57:23.182Z,19.05
2023-04-30T07:00:27.469Z,18.27
2023-04-30T07:03:34.360Z,19.35
2023-04-30T07:06:39.163Z,7.57
2023-04-30T07:09:43.124Z,8.27
2023-04-30T07:12:46.908Z,12.10
2023-04-30T07:15:51.329Z,11.50
2023-04-30T07:18:54.890Z,13.20
2023-04-30T07:21:59.101Z,11.93
2023-04-30T07:25:02.767Z,10.18
2023-04-30T07:28:06.380Z,14.13
2023-04-30T07:31:09.455Z,11.40
2023-04-30T07:34:14.252Z,9.35
2023-04-30T07:37:18.114Z,10.25
2023-04-30T07:40:34.512Z,16.50
2023-04-30T07:43:38.265Z,8.13
2023-04-30T07:46:43.182Z,7.53
2023-04-30T07:49:48.182Z,8.48
2023-04-30T07:52:52.868Z,11.65
2023-04-30T07:55:56.285Z,6.82
2023-04-30T07:59:00.957Z,11.38
2023-04-30T08:02:05.037Z,9.50
2023-04-30T08:05:10.552Z,10.90
2023-04-30T08:08:14.962Z,10.00
2023-04-30T08:11:19.860Z,9.93
2023-04-30T08:14:23.344Z,7.05
2023-04-30T08:17:26.925Z,10.80
2023-04-30T08:20:31.019Z,11.55
2023-04-30T08:23:34.673Z,14.25
2023-04-30T08:26:38.074Z,11.88
2023-04-30T08:29:41.672Z,10.02
2023-04-30T08:32:45.667Z,7.22
2023-04-30T08:35:49.446Z,10.43
2023-04-30T08:38:52.874Z,7.70
2023-04-30T08:41:57.962Z,15.27
2023-04-30T08:45:02.361Z,11.45
2023-04-30T08:48:09.206Z,12.55
2023-04-30T08:51:13.575Z,10.10
2023-04-30T08:54:19.376Z,6.78
2023-04-30T08:57:22.800Z,9.07
2023-04-30T09:00:28.505Z,9.90
2023-04-30T09:03:32.616Z,10.00
2023-04-30T09:06:36.481Z,9.52
2023-04-30T09:09:41.373Z,10.15
2023-04-30T09:12:59.379Z,6.50
2023-04-30T09:16:03.825Z,13.43
2023-04-30T09:19:07.664Z,10.93
2023-04-30T09:22:22.061Z,6.80
2023-04-30T09:25:42.526Z,11.35
2023-04-30T09:28:57.569Z,12.80
2023-04-30T09:32:10.903Z,13.88
2023-04-30T09:35:35.301Z,17.80
2023-04-30T09:38:38.840Z,17.08
2023-04-30T09:41:42.885Z,19.58
2023-04-30T09:44:47.580Z,11.35
2023-04-30T09:47:55.590Z,12.18
2023-04-30T09:51:04.591Z,13.23
2023-04-30T09:54:11.295Z,7.80
2023-04-30T09:57:18.223Z,7.68
2023-04-30T10:00:21.484Z,8.95
2023-04-30T10:03:26.488Z,9.50
2023-04-30T10:06:36.004Z,5.15
2023-04-30T10:09:50.947Z,7.25
2023-04-30T10:13:01.592Z,7.25
2023-04-30T10:16:31.851Z,12.32
2023-04-30T10:19:42.091Z,14.40
2023-04-30T10:22:47.284Z,9.20
2023-04-30T10:25:52.139Z,11.07
2023-04-30T10:28:57.324Z,8.60
2023-04-30T10:32:02.035Z,11.00
2023-04-30T10:35:15.672Z,11.10
2023-04-30T10:38:25.744Z,17.30
2023-04-30T10:41:30.095Z,19.17
2023-04-30T10:44:35.604Z,16.63
2023-04-30T10:47:44.020Z,13.77
2023-04-30T10:50:47.833Z,9.68
2023-04-30T10:53:55.182Z,13.88
2023-04-30T10:57:18.229Z,10.85
2023-04-30T11:00:27.898Z,13.57
2023-04-30T11:03:33.166Z,15.57
2023-04-30T11:07:02.658Z,11.95
2023-04-30T11:10:11.617Z,11.35
2023-04-30T11:13:15.774Z,10.40
2023-04-30T11:16:21.081Z,16.67
2023-04-30T11:23:38.936Z,11.98
2023-04-30T11:27:08.247Z,13.20
2023-04-30T11:30:15.600Z,14.43
2023-04-30T11:33:27.806Z,11.05
2023-04-30T11:36:35.866Z,6.75
2023-04-30T11:39:41.548Z,10.73
2023-04-30T11:42:46.376Z,8.38
2023-04-30T11:46:10.029Z,7.15
2023-04-30T11:49:14.208Z,8.65
2023-04-30T11:52:23.004Z,9.38
2023-04-30T11:55:29.821Z,8.05
2023-04-30T11:58:40.337Z,10.52
2023-04-30T12:01:44.527Z,6.28
2023-04-30T12:04:49.173Z,8.10
2023-04-30T12:11:34.991Z,8.48
2023-04-30T12:14:40.278Z,8.68
2023-04-30T12:17:44.998Z,5.65
2023-04-30T12:20:48.967Z,6.57
2023-04-30T12:23:52.865Z,5.22
2023-04-30T12:26:56.627Z,6.65
2023-04-30T12:30:11.167Z,10.25
2023-04-30T12:33:18.858Z,6.88
2023-04-30T12:36:22.696Z,8.02
2023-04-30T12:39:26.840Z,5.25
2023-04-30T12:42:37.176Z,8.57
2023-04-30T12:45:52.546Z,7.88
2023-04-30T12:48:55.867Z,7.32
2023-04-30T12:52:04.871Z,6.03
2023-04-30T12:55:29.399Z,4.68
2023-04-30T12:58:33.051Z,5.22
2023-04-30T13:01:46.308Z,4.50
2023-04-30T13:04:50.375Z,7.03
2023-04-30T13:07:56.335Z,6.18
2023-04-30T13:11:00.355Z,6.75
2023-04-30T13:14:03.414Z,10.57
2023-04-30T13:20:27.178Z,8.57
2023-04-30T13:31:00.035Z,31.15
2023-04-30T13:52:18.514Z,4.25
2023-04-30T13:55:23.705Z,7.57
2023-04-30T13:58:28.230Z,6.22
2023-04-30T14:05:04.502Z,20.58
2023-04-30T14:14:39.363Z,11.52
2023-04-30T14:17:43.886Z,5.60
2023-04-30T14:20:47.646Z,14.02
2023-04-30T14:23:52.978Z,8.73
2023-04-30T14:26:58.695Z,9.50
2023-04-30T14:30:02.687Z,25.33
2023-04-30T14:33:06.250Z,31.05
2023-04-30T14:36:10.134Z,28.35
2023-04-30T14:39:14.204Z,25.70
2023-04-30T14:42:21.382Z,20.25
2023-04-30T14:48:29.018Z,26.23
2023-04-30T14:51:35.784Z,18.73
2023-04-30T14:57:57.598Z,18.45
2023-04-30T15:01:00.661Z,10.50
2023-04-30T15:10:49.863Z,15.75
2023-04-30T15:13:55.633Z,14.70
2023-04-30T15:16:59.728Z,16.15
2023-04-30T15:20:04.708Z,10.23
2023-04-30T15:23:09.534Z,18.20
2023-04-30T15:26:12.886Z,11.93
2023-04-30T15:29:16.679Z,11.15
2023-04-30T15:32:20.817Z,12.80
2023-04-30T15:35:24.977Z,11.98
2023-04-30T15:38:28.604Z,11.07
2023-04-30T15:41:32.655Z,11.50
2023-04-30T15:44:36.236Z,11.98
2023-04-30T15:47:40.212Z,13.00
2023-04-30T15:50:43.481Z,12.23
2023-04-30T15:53:47.495Z,8.98
2023-04-30T15:56:51.988Z,8.85
2023-04-30T15:59:56.034Z,12.73
2023-04-30T16:02:59.655Z,13.75
2023-04-30T16:06:03.287Z,12.68
2023-04-30T16:09:09.408Z,12.20
2023-04-30T16:12:13.157Z,9.45
2023-04-30T16:15:16.443Z,10.82
2023-04-30T16:18:20.093Z,14.95
2023-04-30T16:21:24.820Z,12.05
2023-04-30T16:24:28.333Z,11.73
2023-04-30T16:27:32.352Z,12.27
2023-04-30T16:30:35.813Z,8.88
2023-04-30T16:33:39.336Z,13.93
2023-04-30T16:36:42.968Z,16.55
2023-04-30T16:39:46.663Z,10.55
2023-04-30T16:42:50.838Z,11.77
2023-04-30T16:45:54.676Z,11.88
2023-04-30T16:48:57.680Z,31.73
2023-04-30T16:52:01.025Z,16.25
2023-04-30T16:55:05.415Z,13.77
2023-04-30T16:58:08.761Z,9.90
2023-04-30T17:01:12.465Z,7.82
2023-04-30T17:04:16.380Z,9.82
2023-04-30T17:07:20.921Z,4.95
2023-04-30T17:10:26.122Z,16.67
2023-04-30T17:13:32.643Z,40.67
2023-04-30T17:16:35.846Z,59.38
2023-04-30T17:19:38.790Z,70.28
2023-04-30T17:22:42.796Z,86.25
2023-04-30T17:25:46.474Z,82.10
2023-04-30T17:28:49.515Z,57.30
2023-04-30T17:31:52.775Z,53.85
2023-04-30T17:34:56.546Z,58.22
2023-04-30T17:38:01.032Z,55.88
2023-04-30T17:41:04.613Z,65.15
2023-04-30T17:44:08.354Z,56.53
2023-04-30T17:47:13.172Z,45.85
2023-04-30T17:50:17.638Z,54.78
2023-04-30T17:53:21.457Z,40.65
2023-04-30T17:56:25.308Z,32.70
2023-04-30T17:59:33.256Z,60.67
2023-04-30T18:02:36.591Z,51.00
2023-04-30T18:05:40.828Z,63.38
2023-04-30T18:08:45.390Z,61.20
2023-04-30T18:11:48.776Z,64.63
2023-04-30T18:14:52.554Z,40.47
2023-04-30T18:17:56.383Z,52.38
2023-04-30T18:21:01.118Z,24.60
2023-04-30T18:24:05.153Z,48.58
2023-04-30T18:27:09.415Z,34.30
2023-04-30T18:30:13.636Z,37.33
2023-04-30T18:33:17.458Z,33.78
2023-04-30T18:36:21.817Z,15.27
2023-04-30T18:39:25.547Z,22.17
2023-04-30T18:42:30.968Z,16.85
2023-04-30T18:45:34.724Z,14.70
2023-04-30T18:48:39.317Z,16.13
2023-04-30T18:51:42.349Z,17.35
2023-04-30T18:54:46.393Z,10.35
2023-04-30T18:57:51.257Z,10.82
2023-04-30T19:00:59.166Z,16.15
2023-04-30T19:07:06.677Z,18.70
2023-04-30T19:10:10.203Z,17.23
2023-04-30T19:13:14.486Z,9.38
2023-04-30T19:16:18.693Z,16.65
2023-04-30T19:19:22.448Z,7.82
2023-04-30T19:22:26.310Z,9.05
2023-04-30T19:25:30.660Z,7.78
2023-04-30T19:28:33.925Z,7.00
2023-04-30T19:31:38.556Z,10.00
2023-04-30T19:34:42.579Z,12.32
2023-04-30T19:37:46.618Z,9.18
2023-04-30T19:40:52.411Z,8.02
2023-04-30T19:43:56.523Z,25.52
2023-04-30T19:47:00.615Z,11.43
2023-04-30T19:50:04.130Z,24.83
2023-04-30T19:53:07.050Z,16.23
2023-04-30T19:56:11.342Z,33.95
2023-04-30T19:59:14.723Z,31.33
2023-04-30T20:02:18.103Z,29.73
2023-04-30T20:05:22.346Z,22.95
2023-04-30T20:08:26.448Z,22.02
2023-04-30T20:11:29.839Z,23.80
2023-04-30T20:14:33.452Z,18.60
2023-04-30T20:17:37.259Z,15.60
2023-04-30T20:20:40.635Z,17.38
2023-04-30T20:23:44.357Z,20.70
2023-04-30T20:26:48.008Z,25.30
2023-04-30T20:29:51.731Z,24.60
2023-04-30T20:32:56.079Z,18.40
2023-04-30T20:36:00.934Z,20.92
2023-04-30T20:39:04.931Z,16.90
2023-04-30T20:42:08.315Z,17.27
2023-04-30T20:45:12.706Z,17.67
2023-04-30T20:48:17.617Z,22.38
2023-04-30T20:51:20.958Z,13.80
2023-04-30T20:54:24.660Z,8.75
2023-04-30T20:57:28.707Z,10.50
2023-04-30T21:00:32.072Z,8.45
2023-04-30T21:03:35.577Z,10.82
2023-04-30T21:06:39.385Z,8.93
2023-04-30T21:09:43.783Z,8.95
2023-04-30T21:12:47.457Z,11.90
2023-04-30T21:15:54.270Z,8.23
2023-04-30T21:18:57.297Z,8.10
2023-04-30T21:22:01.001Z,6.95
2023-04-30T21:25:06.800Z,7.88
2023-04-30T21:28:10.902Z,6.43
2023-04-30T21:31:14.355Z,9.52
2023-04-30T21:34:18.557Z,8.30
2023-04-30T21:37:22.121Z,17.30
2023-04-30T21:40:26.297Z,23.83
2023-04-30T21:43:29.983Z,17.92
2023-04-30T21:46:33.061Z,14.63
2023-04-30T21:49:36.382Z,18.85
2023-04-30T21:52:39.418Z,19.13
2023-04-30T21:55:43.209Z,17.35
2023-04-30T21:58:47.381Z,13.07
2023-04-30T22:01:50.369Z,28.98
2023-04-30T22:04:57.773Z,24.27
2023-04-30T22:08:00.784Z,15.70
2023-04-30T22:11:05.506Z,14.18
2023-04-30T22:14:09.217Z,10.65
2023-04-30T22:17:13.248Z,22.27
2023-04-30T22:20:17.342Z,14.15
2023-04-30T22:23:24.091Z,18.75
2023-04-30T22:26:27.945Z,19.83
2023-04-30T22:29:31.941Z,19.20
2023-04-30T22:32:36.142Z,21.10
2023-04-30T22:35:39.868Z,18.80
2023-04-30T22:38:43.556Z,20.67
2023-04-30T22:41:47.495Z,17.55
2023-04-30T22:44:52.006Z,15.32
2023-04-30T22:47:55.823Z,23.63
2023-04-30T22:51:00.536Z,18.63
2023-04-30T22:54:05.303Z,16.98
2023-04-30T22:57:09.116Z,18.63
2023-04-30T23:00:13.475Z,12.82
2023-04-30T23:03:18.163Z,17.85
2023-04-30T23:06:21.954Z,10.30
2023-04-30T23:09:25.828Z,7.25
2023-04-30T23:12:29.949Z,11.82
2023-04-30T23:15:33.364Z,11.27
2023-04-30T23:18:37.815Z,13.32
2023-04-30T23:21:41.272Z,10.98
2023-04-30T23:24:45.052Z,9.65
2023-04-30T23:27:48.832Z,16.45
2023-04-30T23:30:52.833Z,29.15
2023-04-30T23:33:55.994Z,23.80
2023-04-30T23:36:59.072Z,19.50
2023-04-30T23:40:02.242Z,18.58
2023-04-30T23:43:06.151Z,14.80
2023-04-30T23:46:10.053Z,21.88
2023-04-30T23:49:13.478Z,14.27
2023-04-30T23:52:17.242Z,14.60
2023-04-30T23:55:21.557Z,15.27
2023-04-30T23:58:32.240Z,14.95
